Aviation Digital Data Service (ADDS)

Output produced by METARs form (0309 UTC 18 August 2017)
found at http://www.aviationweather.gov/adds/metars/
 
SMJP 180300Z 10002KT CAVOK 25/24 Q1011 NOSIG
TAF SMJP 172200Z 1800/1824 09004KT CAVOK TX34/1818Z TN23/1810Z 
     PROB30 
     TEMPO 1809/1811 3000 BR SCT002 
     FM181200 13010KT 9999 SCT020